Time,TemperatureF,DewpointF,PressureIn,WindDirection,WindDirectionDegrees,WindSpeedMPH,WindSpeedGustMPH,Humidity,HourlyPrecipIn,Conditions,Clouds,dailyrainin,SoftwareType,DateUTC
2013-08-07 00:11:00,62.0,38.0,29.99,SW,231,5.0,6.0,41,0.00,,,0.00,weatherlink.com 1.10,2013-08-07 06:11:00,
2013-08-07 00:26:00,60.7,38.0,29.99,SW,227,4.0,6.0,44,0.00,,,0.00,weatherlink.com 1.10,2013-08-07 06:26:00,
2013-08-07 00:41:00,60.5,38.0,30.00,West,266,3.0,5.0,44,0.00,,,0.00,weatherlink.com 1.10,2013-08-07 06:41:00,
2013-08-07 00:56:00,59.3,38.0,30.00,West,266,1.0,5.0,45,0.00,,,0.00,weatherlink.com 1.10,2013-08-07 06:56:00,
2013-08-07 01:11:00,60.1,38.0,30.00,WSW,245,3.0,4.0,44,0.00,,,0.00,weatherlink.com 1.10,2013-08-07 07:11:00,
2013-08-07 01:26:00,60.1,39.0,30.00,WSW,245,3.0,4.0,45,0.00,,,0.00,weatherlink.com 1.10,2013-08-07 07:26:00,
2013-08-07 01:41:00,59.9,38.0,30.00,SW,220,4.0,5.0,45,0.00,,,0.00,weatherlink.com 1.10,2013-08-07 07:41:00,
2013-08-07 01:57:00,61.0,38.0,29.99,SW,218,10.0,10.0,42,0.00,,,0.00,weatherlink.com 1.10,2013-08-07 07:57:00,
2013-08-07 02:12:00,61.5,38.0,29.99,WSW,250,4.0,8.0,42,0.00,,,0.00,weatherlink.com 1.10,2013-08-07 08:12:00,
2013-08-07 02:27:00,59.2,38.0,29.98,West,273,0.0,5.0,46,0.00,,,0.00,weatherlink.com 1.10,2013-08-07 08:27:00,
2013-08-07 02:42:00,59.3,39.0,29.99,WSW,248,0.0,5.0,47,0.00,,,0.00,weatherlink.com 1.10,2013-08-07 08:42:00,
2013-08-07 02:58:00,59.0,38.0,29.98,WSW,248,2.0,2.0,46,0.00,,,0.00,weatherlink.com 1.10,2013-08-07 08:58:00,
2013-08-07 03:12:00,60.1,40.0,29.98,WSW,248,2.0,3.0,48,0.00,,,0.00,weatherlink.com 1.10,2013-08-07 09:12:00,
2013-08-07 03:27:00,59.2,38.0,29.98,WSW,247,2.0,3.0,46,0.00,,,0.00,weatherlink.com 1.10,2013-08-07 09:27:00,
2013-08-07 03:42:00,58.9,39.0,29.98,WSW,247,1.0,3.0,48,0.00,,,0.00,weatherlink.com 1.10,2013-08-07 09:42:00,
2013-08-07 03:57:00,57.8,39.0,29.98,WSW,247,1.0,3.0,50,0.00,,,0.00,weatherlink.com 1.10,2013-08-07 09:57:00,
2013-08-07 04:12:00,58.0,39.0,29.98,WSW,247,1.0,3.0,50,0.00,,,0.00,weatherlink.com 1.10,2013-08-07 10:12:00,
2013-08-07 04:27:00,58.4,40.0,29.97,WSW,247,0.0,2.0,50,0.00,,,0.00,weatherlink.com 1.10,2013-08-07 10:27:00,
2013-08-07 04:42:00,57.5,40.0,29.97,WSW,247,1.0,1.0,53,0.00,,,0.00,weatherlink.com 1.10,2013-08-07 10:42:00,
2013-08-07 04:57:00,56.5,39.0,29.97,SW,232,2.0,4.0,53,0.00,,,0.00,weatherlink.com 1.10,2013-08-07 10:57:00,
2013-08-07 05:12:00,54.7,39.0,29.97,SW,232,2.0,3.0,56,0.00,,,0.00,weatherlink.com 1.10,2013-08-07 11:12:00,
2013-08-07 05:27:00,53.8,40.0,29.97,SW,231,2.0,5.0,60,0.00,,,0.00,weatherlink.com 1.10,2013-08-07 11:27:00,
2013-08-07 05:42:00,53.1,39.0,29.98,SW,231,0.0,3.0,60,0.00,,,0.00,weatherlink.com 1.10,2013-08-07 11:42:00,
2013-08-07 05:57:00,52.8,39.0,29.98,SW,231,1.0,2.0,61,0.00,,,0.00,weatherlink.com 1.10,2013-08-07 11:57:00,
2013-08-07 06:12:00,52.6,40.0,29.99,SW,232,0.0,2.0,62,0.00,,,0.00,weatherlink.com 1.10,2013-08-07 12:12:00,
2013-08-07 06:27:00,52.3,39.0,29.99,SW,231,2.0,3.0,62,0.00,,,0.00,weatherlink.com 1.10,2013-08-07 12:27:00,
2013-08-07 06:42:00,52.0,40.0,29.98,SW,232,1.0,2.0,63,0.00,,,0.00,weatherlink.com 1.10,2013-08-07 12:42:00,
2013-08-07 06:57:00,53.2,40.0,29.98,SW,232,1.0,2.0,62,0.00,,,0.00,weatherlink.com 1.10,2013-08-07 12:57:00,
2013-08-07 07:12:00,54.5,42.0,29.99,SW,232,2.0,3.0,64,0.00,,,0.00,weatherlink.com 1.10,2013-08-07 13:12:00,
2013-08-07 07:27:00,55.6,43.0,29.98,SW,232,0.0,2.0,63,0.00,,,0.00,weatherlink.com 1.10,2013-08-07 13:27:00,
2013-08-07 07:42:00,56.2,44.0,29.98,SW,232,0.0,2.0,65,0.00,,,0.00,weatherlink.com 1.10,2013-08-07 13:42:00,
2013-08-07 07:57:00,56.9,46.0,29.98,SW,232,2.0,3.0,66,0.00,,,0.00,weatherlink.com 1.10,2013-08-07 13:57:00,
2013-08-07 08:12:00,60.4,43.0,29.98,SW,232,0.0,1.0,53,0.00,,,0.00,weatherlink.com 1.10,2013-08-07 14:12:00,
2013-08-07 08:27:00,64.0,43.0,29.98,NE,49,3.0,9.0,46,0.00,,,0.00,weatherlink.com 1.10,2013-08-07 14:27:00,
2013-08-07 08:42:00,64.8,43.0,29.98,NNW,335,1.0,7.0,45,0.00,,,0.00,weatherlink.com 1.10,2013-08-07 14:42:00,
2013-08-07 08:57:00,65.2,43.0,29.98,NNW,347,5.0,9.0,45,0.00,,,0.00,weatherlink.com 1.10,2013-08-07 14:57:00,
2013-08-07 09:12:00,65.5,45.0,29.98,NNW,346,2.0,6.0,47,0.00,,,0.00,weatherlink.com 1.10,2013-08-07 15:12:00,
2013-08-07 09:27:00,66.1,43.0,29.98,East,83,2.0,6.0,44,0.00,,,0.00,weatherlink.com 1.10,2013-08-07 15:27:00,
2013-08-07 09:42:00,67.9,43.0,29.97,NE,36,5.0,8.0,41,0.00,,,0.00,weatherlink.com 1.10,2013-08-07 15:42:00,
2013-08-07 09:57:00,68.6,43.0,29.97,NE,53,6.0,6.0,40,0.00,,,0.00,weatherlink.com 1.10,2013-08-07 15:57:00,
2013-08-07 10:12:00,70.4,42.0,29.97,NNE,29,6.0,8.0,36,0.00,,,0.00,weatherlink.com 1.10,2013-08-07 16:12:00,
2013-08-07 10:27:00,69.9,43.0,29.97,NW,315,0.0,5.0,38,0.00,,,0.00,weatherlink.com 1.10,2013-08-07 16:27:00,
2013-08-07 10:42:00,70.8,44.0,29.96,SW,216,2.0,5.0,38,0.00,,,0.00,weatherlink.com 1.10,2013-08-07 16:42:00,
2013-08-07 10:57:00,72.7,43.0,29.96,ENE,74,3.0,5.0,34,0.00,,,0.00,weatherlink.com 1.10,2013-08-07 16:57:00,
2013-08-07 11:12:00,72.8,43.0,29.95,East,100,3.0,9.0,34,0.00,,,0.00,weatherlink.com 1.10,2013-08-07 17:12:00,
2013-08-07 11:27:00,74.7,42.0,29.95,ESE,107,3.0,8.0,31,0.00,,,0.00,weatherlink.com 1.10,2013-08-07 17:27:00,
2013-08-07 11:42:00,74.0,43.0,29.94,NE,54,5.0,10.0,33,0.00,,,0.00,weatherlink.com 1.10,2013-08-07 17:42:00,
2013-08-07 11:57:00,74.9,42.0,29.94,East,100,2.0,9.0,31,0.00,,,0.00,weatherlink.com 1.10,2013-08-07 17:57:00,
2013-08-07 12:13:00,75.3,43.0,29.93,East,92,8.0,10.0,32,0.00,,,0.00,weatherlink.com 1.10,2013-08-07 18:13:00,
2013-08-07 12:28:00,75.4,43.0,29.92,East,85,5.0,11.0,32,0.00,,,0.00,weatherlink.com 1.10,2013-08-07 18:28:00,
2013-08-07 12:43:00,76.7,43.0,29.91,East,99,5.0,11.0,30,0.00,,,0.00,weatherlink.com 1.10,2013-08-07 18:43:00,
2013-08-07 12:58:00,76.8,42.0,29.91,ENE,73,7.0,13.0,29,0.00,,,0.00,weatherlink.com 1.10,2013-08-07 18:58:00,
2013-08-07 13:13:00,77.7,42.0,29.90,East,95,7.0,10.0,28,0.00,,,0.00,weatherlink.com 1.10,2013-08-07 19:13:00,
2013-08-07 13:28:00,79.0,43.0,29.89,ENE,64,2.0,9.0,28,0.00,,,0.00,weatherlink.com 1.10,2013-08-07 19:28:00,
2013-08-07 13:43:00,80.1,42.0,29.89,East,93,5.0,7.0,26,0.00,,,0.00,weatherlink.com 1.10,2013-08-07 19:43:00,
2013-08-07 13:58:00,80.5,44.0,29.88,East,96,6.0,9.0,27,0.00,,,0.00,weatherlink.com 1.10,2013-08-07 19:58:00,
2013-08-07 14:13:00,81.4,43.0,29.87,NE,45,3.0,5.0,26,0.00,,,0.00,weatherlink.com 1.10,2013-08-07 20:13:00,
2013-08-07 14:28:00,81.8,42.0,29.87,ESE,104,8.0,11.0,24,0.00,,,0.00,weatherlink.com 1.10,2013-08-07 20:28:00,
2013-08-07 14:43:00,82.6,40.0,29.86,East,98,5.0,13.0,22,0.00,,,0.00,weatherlink.com 1.10,2013-08-07 20:43:00,
2013-08-07 14:58:00,82.0,43.0,29.85,East,93,0.0,7.0,25,0.00,,,0.00,weatherlink.com 1.10,2013-08-07 20:58:00,
2013-08-07 15:13:00,83.6,41.0,29.85,East,93,6.0,9.0,22,0.00,,,0.00,weatherlink.com 1.10,2013-08-07 21:13:00,
2013-08-07 15:28:00,82.6,40.0,29.84,ESE,110,7.0,8.0,22,0.00,,,0.00,weatherlink.com 1.10,2013-08-07 21:28:00,
2013-08-07 15:43:00,84.5,37.0,29.83,NE,46,0.0,8.0,18,0.00,,,0.00,weatherlink.com 1.10,2013-08-07 21:43:00,
2013-08-07 15:58:00,82.8,34.0,29.83,ESE,105,5.0,7.0,17,0.00,,,0.00,weatherlink.com 1.10,2013-08-07 21:58:00,
2013-08-07 16:13:00,83.6,33.0,29.83,ENE,70,1.0,3.0,16,0.00,,,0.00,weatherlink.com 1.10,2013-08-07 22:13:00,
2013-08-07 16:28:00,83.4,31.0,29.82,ESE,110,0.0,8.0,15,0.00,,,0.00,weatherlink.com 1.10,2013-08-07 22:28:00,
2013-08-07 16:43:00,84.7,30.0,29.82,East,85,2.0,5.0,14,0.00,,,0.00,weatherlink.com 1.10,2013-08-07 22:43:00,
2013-08-07 16:58:00,86.3,32.0,29.82,SE,139,0.0,8.0,14,0.00,,,0.00,weatherlink.com 1.10,2013-08-07 22:58:00,
2013-08-07 17:13:00,84.3,30.0,29.82,ESE,112,1.0,10.0,14,0.00,,,0.00,weatherlink.com 1.10,2013-08-07 23:13:00,
2013-08-07 17:28:00,84.0,36.0,29.82,SSE,166,0.0,6.0,18,0.00,,,0.00,weatherlink.com 1.10,2013-08-07 23:28:00,
2013-08-07 17:43:00,82.8,36.0,29.81,SSE,166,2.0,3.0,19,0.00,,,0.00,weatherlink.com 1.10,2013-08-07 23:43:00,
2013-08-07 17:58:00,83.4,41.0,29.81,SW,224,0.0,5.0,22,0.00,,,0.00,weatherlink.com 1.10,2013-08-07 23:58:00,
2013-08-07 18:13:00,82.8,32.0,29.81,SW,233,3.0,5.0,16,0.00,,,0.00,weatherlink.com 1.10,2013-08-08 00:13:00,
2013-08-07 18:28:00,82.2,36.0,29.81,SW,233,3.0,4.0,19,0.00,,,0.00,weatherlink.com 1.10,2013-08-08 00:28:00,
2013-08-07 18:43:00,79.2,45.0,29.81,SW,233,0.0,4.0,30,0.00,,,0.00,weatherlink.com 1.10,2013-08-08 00:43:00,
2013-08-07 18:58:00,75.6,44.0,29.82,SW,233,4.0,4.0,32,0.00,,,0.00,weatherlink.com 1.10,2013-08-08 00:58:00,
2013-08-07 19:13:00,78.5,35.0,29.81,SSW,209,6.0,7.0,21,0.00,,,0.00,weatherlink.com 1.10,2013-08-08 01:13:00,
2013-08-07 19:28:00,78.8,37.0,29.81,SW,216,5.0,9.0,22,0.00,,,0.00,weatherlink.com 1.10,2013-08-08 01:28:00,
2013-08-07 19:43:00,79.0,35.0,29.84,NE,45,16.0,29.0,20,0.00,,,0.00,weatherlink.com 1.10,2013-08-08 01:43:00,
2013-08-07 19:58:00,77.4,34.0,29.84,NNE,25,14.0,20.0,21,0.00,,,0.00,weatherlink.com 1.10,2013-08-08 01:58:00,
2013-08-07 20:13:00,76.0,34.0,29.86,NNE,30,4.0,13.0,22,0.00,,,0.00,weatherlink.com 1.10,2013-08-08 02:13:00,
2013-08-07 20:28:00,72.1,35.0,29.87,WSW,244,8.0,8.0,26,0.00,,,0.00,weatherlink.com 1.10,2013-08-08 02:28:00,
2013-08-07 20:43:00,74.2,34.0,29.88,WSW,250,5.0,11.0,23,0.00,,,0.00,weatherlink.com 1.10,2013-08-08 02:43:00,
2013-08-07 20:58:00,73.2,35.0,29.89,WSW,238,0.0,3.0,25,0.00,,,0.00,weatherlink.com 1.10,2013-08-08 02:58:00,
2013-08-07 21:13:00,71.3,36.0,29.90,WSW,238,2.0,2.0,27,0.00,,,0.00,weatherlink.com 1.10,2013-08-08 03:13:00,
2013-08-07 21:28:00,68.9,34.0,29.91,WSW,238,0.0,5.0,28,0.00,,,0.00,weatherlink.com 1.10,2013-08-08 03:28:00,
2013-08-07 21:43:00,67.9,33.0,29.91,WSW,238,0.0,2.0,28,0.00,,,0.00,weatherlink.com 1.10,2013-08-08 03:43:00,
2013-08-07 21:58:00,67.8,36.0,29.93,SW,226,3.0,8.0,31,0.00,,,0.00,weatherlink.com 1.10,2013-08-08 03:58:00,
2013-08-07 22:13:00,65.8,36.0,29.93,WSW,242,5.0,6.0,33,0.00,,,0.00,weatherlink.com 1.10,2013-08-08 04:13:00,
2013-08-07 22:28:00,64.5,35.0,29.93,WSW,242,0.0,5.0,34,0.00,,,0.00,weatherlink.com 1.10,2013-08-08 04:28:00,
2013-08-07 22:43:00,64.5,35.0,29.93,WSW,242,0.0,3.0,34,0.00,,,0.00,weatherlink.com 1.10,2013-08-08 04:43:00,
2013-08-07 22:58:00,63.5,36.0,29.94,WSW,242,5.0,6.0,36,0.00,,,0.00,weatherlink.com 1.10,2013-08-08 04:58:00,
2013-08-07 23:13:00,63.5,36.0,29.94,SW,224,5.0,7.0,36,0.00,,,0.00,weatherlink.com 1.10,2013-08-08 05:13:00,
2013-08-07 23:28:00,64.3,37.0,29.94,SW,235,6.0,7.0,36,0.00,,,0.00,weatherlink.com 1.10,2013-08-08 05:28:00,
2013-08-07 23:43:00,62.7,35.0,29.95,SW,235,0.0,5.0,36,0.00,,,0.00,weatherlink.com 1.10,2013-08-08 05:43:00,
2013-08-07 23:58:00,63.4,36.0,29.95,SW,222,0.0,4.0,36,0.00,,,0.00,weatherlink.com 1.10,2013-08-08 05:58:00,